Time;durP1;ratioP1;P1;durP2;ratioP2;P2;SDS_P1;SDS_P2;PMS_P1;PMS_P2;Temp;Humidity;BMP_temperature;BMP_pressure;BME280_temperature;BME280_humidity;BME280_pressure;Samples;Min_cycle;Max_cycle;Signal;HPM_P1;HPM_P2
2022/12/28 00:00:36;;;;;;;7.35;3.25;;;24.60;56.40;;;;;;4993209;28;20676;-40
2022/12/28 00:03:07;;;;;;;5.97;2.72;;;24.60;56.30;;;;;;4993272;28;20650;-40
2022/12/28 00:05:39;;;;;;;5.25;2.80;;;24.60;56.30;;;;;;4993037;28;20201;-40
2022/12/28 00:08:10;;;;;;;6.32;3.00;;;24.70;56.30;;;;;;4993390;28;20205;-39
2022/12/28 00:10:41;;;;;;;4.22;2.47;;;24.70;56.30;;;;;;4993581;28;20205;-40
2022/12/28 00:13:11;;;;;;;3.60;2.30;;;24.70;56.30;;;;;;4992947;28;20586;-40
2022/12/28 00:15:42;;;;;;;3.78;2.47;;;24.70;56.30;;;;;;4992397;28;20197;-40
2022/12/28 00:18:13;;;;;;;5.57;2.40;;;24.70;56.30;;;;;;4992627;28;20697;-40
2022/12/28 00:20:45;;;;;;;3.38;2.00;;;24.70;56.20;;;;;;4992852;28;20194;-41
2022/12/28 00:23:16;;;;;;;5.43;2.83;;;24.70;56.20;;;;;;4992461;28;20198;-40
2022/12/28 00:25:47;;;;;;;2.83;2.10;;;24.80;56.20;;;;;;4992653;28;20209;-41
2022/12/28 00:28:17;;;;;;;4.32;2.30;;;24.80;56.10;;;;;;4992836;28;20198;-40
2022/12/28 00:30:48;;;;;;;4.38;2.63;;;24.80;56.00;;;;;;4993104;28;20197;-42
2022/12/28 00:33:19;;;;;;;4.72;2.38;;;24.80;56.00;;;;;;4992680;28;20202;-40
2022/12/28 00:35:58;;;;;;;4.82;2.63;;;24.90;56.00;;;;;;4992690;28;20197;-42
2022/12/28 00:38:30;;;;;;;4.45;2.20;;;24.90;56.00;;;;;;4992632;28;20221;-40
2022/12/28 00:41:01;;;;;;;3.33;2.05;;;24.90;56.00;;;;;;4993033;28;20208;-40
2022/12/28 00:43:31;;;;;;;4.32;2.60;;;24.90;55.90;;;;;;4993408;28;20213;-40
2022/12/28 00:46:02;;;;;;;3.22;1.98;;;24.90;55.90;;;;;;4992799;28;20205;-40
2022/12/28 00:48:33;;;;;;;4.60;2.47;;;24.90;55.90;;;;;;4992081;28;20208;-41
2022/12/28 00:51:09;;;;;;;3.28;2.22;;;25.00;55.90;;;;;;4992539;28;20244;-40
2022/12/28 00:53:40;;;;;;;5.45;2.60;;;25.00;55.90;;;;;;4992692;28;20205;-40
2022/12/28 00:56:12;;;;;;;2.60;1.98;;;25.00;55.80;;;;;;4992454;28;20189;-41
2022/12/28 00:58:43;;;;;;;3.58;2.28;;;25.00;55.80;;;;;;4992244;28;20225;-40
2022/12/28 01:01:16;;;;;;;6.03;2.33;;;25.10;55.80;;;;;;4991986;28;20221;-40
2022/12/28 01:03:47;;;;;;;4.10;2.08;;;25.10;55.70;;;;;;4991245;28;20201;-41
2022/12/28 01:06:21;;;;;;;4.97;2.38;;;25.10;55.60;;;;;;4992123;28;20572;-42
2022/12/28 01:08:52;;;;;;;3.80;2.13;;;25.10;55.60;;;;;;4992280;28;20201;-42
2022/12/28 01:11:24;;;;;;;6.00;2.30;;;25.10;55.60;;;;;;4991994;28;20237;-40
2022/12/28 01:13:56;;;;;;;3.13;1.83;;;25.10;55.50;;;;;;4992093;28;20193;-43
2022/12/28 01:16:29;;;;;;;4.15;1.83;;;25.20;55.50;;;;;;4991758;28;20205;-40
2022/12/28 01:19:01;;;;;;;3.67;2.22;;;25.20;56.10;;;;;;4991432;28;20225;-40
2022/12/28 01:21:35;;;;;;;4.05;2.05;;;25.20;55.50;;;;;;4991335;28;20229;-41
2022/12/28 01:24:08;;;;;;;4.13;1.90;;;25.20;55.50;;;;;;4991400;28;20197;-40
2022/12/28 01:26:39;;;;;;;3.42;1.83;;;25.30;55.50;;;;;;4991235;28;20209;-40
2022/12/28 01:29:09;;;;;;;3.67;1.90;;;25.30;55.40;;;;;;4987647;28;20702;-43
2022/12/28 01:31:40;;;;;;;5.20;2.13;;;25.30;55.40;;;;;;4991116;28;20222;-40
2022/12/28 01:34:11;;;;;;;4.47;1.88;;;25.30;55.30;;;;;;4991657;28;20197;-40
2022/12/28 01:36:43;;;;;;;5.07;1.90;;;25.30;55.30;;;;;;4992000;28;20677;-46
2022/12/28 01:39:14;;;;;;;3.67;2.00;;;25.30;55.20;;;;;;4991892;28;20606;-40
2022/12/28 01:41:45;;;;;;;3.00;1.75;;;25.30;55.10;;;;;;4991654;28;20221;-40
2022/12/28 01:44:43;;;;;;;3.17;2.00;;;25.40;55.10;;;;;;4991641;28;20197;-42
2022/12/28 01:47:18;;;;;;;4.10;2.08;;;25.30;54.90;;;;;;4991097;28;20272;-44
2022/12/28 01:49:58;;;;;;;3.97;2.38;;;25.40;54.90;;;;;;4990894;28;20819;-41
2022/12/28 01:52:35;;;;;;;4.40;2.00;;;25.40;54.90;;;;;;4991540;28;20224;-40
2022/12/28 01:55:10;;;;;;;4.28;1.80;;;25.40;54.90;;;;;;4991729;28;20197;-40
2022/12/28 01:57:46;;;;;;;3.38;1.70;;;25.40;54.90;;;;;;4991718;28;20236;-40
2022/12/28 02:00:18;;;;;;;3.05;1.70;;;25.40;55.00;;;;;;4991580;28;20212;-40
2022/12/28 02:02:54;;;;;;;3.08;2.13;;;25.50;55.00;;;;;;4991207;28;20217;-45
2022/12/28 02:05:30;;;;;;;3.58;2.05;;;25.50;55.00;;;;;;4990920;28;20727;-40
2022/12/28 02:08:07;;;;;;;3.70;2.08;;;25.50;55.00;;;;;;4991154;28;20212;-40
2022/12/28 02:10:40;;;;;;;3.83;1.88;;;25.50;55.00;;;;;;4991278;28;20251;-41
2022/12/28 02:13:11;;;;;;;4.82;2.30;;;25.50;55.00;;;;;;4990830;28;20213;-41
2022/12/28 02:15:42;;;;;;;3.53;2.15;;;25.60;54.90;;;;;;4993532;28;20197;-42
2022/12/28 02:18:14;;;;;;;2.83;1.80;;;25.60;54.90;;;;;;4994890;28;20236;-40
2022/12/28 02:21:02;;;;;;;2.72;1.70;;;25.60;54.90;;;;;;4995313;28;20567;-40
2022/12/28 02:24:02;;;;;;;3.80;2.00;;;25.60;54.90;;;;;;4994774;28;20645;-40
2022/12/28 02:26:43;;;;;;;3.75;1.80;;;25.60;54.80;;;;;;4994828;28;20213;-41
2022/12/28 02:29:46;;;;;;;5.32;2.33;;;25.70;54.90;;;;;;4995077;28;20660;-39
2022/12/28 02:32:28;;;;;;;4.43;1.90;;;25.70;54.80;;;;;;4995235;28;20224;-40
2022/12/28 02:35:06;;;;;;;3.63;1.80;;;25.70;54.80;;;;;;4994909;28;20204;-40
2022/12/28 02:37:42;;;;;;;4.03;2.10;;;25.70;55.40;;;;;;4994724;28;20216;-40
2022/12/28 02:40:18;;;;;;;4.38;1.95;;;25.70;54.80;;;;;;4995122;28;20216;-39
2022/12/28 02:42:50;;;;;;;3.13;1.73;;;25.80;54.80;;;;;;4994797;28;20220;-40
2022/12/28 02:51:52;;;;;;;4.20;2.10;;;25.80;54.60;;;;;;4994791;28;20692;-40
2022/12/28 02:58:18;;;;;;;4.40;2.25;;;25.90;54.90;;;;;;4934086;29;20214;-40
2022/12/28 03:01:05;;;;;;;2.47;1.60;;;25.90;54.50;;;;;;4993392;28;20193;-42
2022/12/28 03:03:40;;;;;;;3.17;1.83;;;25.90;54.60;;;;;;4994074;28;20205;-40
2022/12/28 03:09:15;;;;;;;2.45;1.65;;;26.00;54.60;;;;;;4994442;28;20259;-40
2022/12/28 03:11:52;;;;;;;3.40;1.60;;;26.00;54.60;;;;;;4994180;28;20224;-40
2022/12/28 03:14:30;;;;;;;3.42;1.83;;;26.00;54.60;;;;;;4993725;28;20205;-40
2022/12/28 03:31:16;;;;;;;2.60;1.80;;;26.20;54.50;;;;;;4993054;28;20341;-40
2022/12/28 03:33:50;;;;;;;3.38;1.55;;;26.20;54.50;;;;;;4993379;28;20672;-43
2022/12/28 03:36:28;;;;;;;4.10;1.80;;;26.30;54.60;;;;;;4992110;28;20197;-41
2022/12/28 03:39:11;;;;;;;5.68;2.10;;;26.30;54.40;;;;;;4992921;28;20228;-41
2022/12/28 03:41:46;;;;;;;4.03;1.90;;;26.30;54.40;;;;;;4992253;28;20225;-42
2022/12/28 03:44:28;;;;;;;3.40;1.83;;;26.30;54.40;;;;;;4991437;28;20193;-40
2022/12/28 03:47:02;;;;;;;7.90;2.13;;;26.30;54.60;;;;;;4992634;28;20681;-41
2022/12/28 03:49:34;;;;;;;6.75;2.28;;;26.40;54.70;;;;;;4992975;28;20200;-41
2022/12/28 03:52:06;;;;;;;7.07;2.30;;;26.40;54.70;;;;;;4993208;28;20218;-41
2022/12/28 03:54:38;;;;;;;10.10;2.72;;;26.40;54.80;;;;;;4992038;28;20202;-41
2022/12/28 03:57:08;;;;;;;10.43;2.28;;;26.40;55.00;;;;;;4992076;28;20190;-40
2022/12/28 03:59:39;;;;;;;6.50;2.20;;;26.50;55.10;;;;;;4992106;28;20226;-42
2022/12/28 04:02:10;;;;;;;5.47;2.42;;;26.50;55.10;;;;;;4991791;28;20221;-41
2022/12/28 04:04:42;;;;;;;7.53;2.42;;;26.50;55.10;;;;;;4991238;28;20737;-40
2022/12/28 04:07:13;;;;;;;4.60;2.03;;;26.50;55.10;;;;;;4992422;28;20201;-41
2022/12/28 04:09:44;;;;;;;4.50;2.13;;;26.50;55.00;;;;;;4991753;28;20209;-40
2022/12/28 04:12:14;;;;;;;7.28;2.38;;;26.60;55.10;;;;;;4991974;28;20222;-41
2022/12/28 04:14:45;;;;;;;6.03;2.10;;;26.60;55.20;;;;;;4991554;28;20237;-40
2022/12/28 04:17:16;;;;;;;5.18;2.50;;;26.60;55.10;;;;;;4992225;28;20205;-39
2022/12/28 04:19:48;;;;;;;5.38;2.10;;;26.70;55.10;;;;;;4991912;28;20585;-39
2022/12/28 04:22:19;;;;;;;7.00;2.45;;;26.70;55.10;;;;;;4991577;28;20218;-39
2022/12/28 04:24:50;;;;;;;5.35;2.58;;;26.70;55.00;;;;;;4992638;28;20205;-39
2022/12/28 04:27:22;;;;;;;7.13;2.30;;;26.70;54.90;;;;;;4992179;28;20213;-39
2022/12/28 04:29:53;;;;;;;5.10;2.10;;;26.80;55.00;;;;;;4992789;28;20190;-44
2022/12/28 04:32:24;;;;;;;4.72;2.20;;;26.80;55.00;;;;;;4992215;28;20592;-39
2022/12/28 04:34:56;;;;;;;4.95;1.83;;;26.80;54.90;;;;;;4991486;28;20185;-37
2022/12/28 04:37:27;;;;;;;5.38;2.50;;;26.90;54.90;;;;;;4992009;28;20198;-38
2022/12/28 04:39:58;;;;;;;6.13;2.30;;;26.90;54.90;;;;;;4991231;28;20221;-37
2022/12/28 04:42:29;;;;;;;3.63;2.05;;;27.00;54.90;;;;;;4991562;28;20737;-37
2022/12/28 04:44:59;;;;;;;5.47;2.15;;;27.00;54.80;;;;;;4991722;28;20189;-37
2022/12/28 04:47:31;;;;;;;5.93;2.08;;;27.00;54.80;;;;;;4991967;28;20657;-37
2022/12/28 04:50:03;;;;;;;5.07;1.85;;;27.00;54.80;;;;;;4990332;28;20193;-37
2022/12/28 04:52:35;;;;;;;5.03;1.77;;;27.00;54.70;;;;;;4990688;28;20229;-37
2022/12/28 04:55:06;;;;;;;4.70;1.85;;;27.10;54.70;;;;;;4991367;28;20668;-37
2022/12/28 04:57:37;;;;;;;4.15;1.77;;;27.10;54.60;;;;;;4991933;28;20208;-40
2022/12/28 05:00:08;;;;;;;3.95;1.80;;;27.10;54.50;;;;;;4993528;28;20235;-37
2022/12/28 05:02:39;;;;;;;3.88;1.70;;;27.10;54.50;;;;;;5011031;28;20224;-37
2022/12/28 05:05:12;;;;;;;4.47;1.90;;;27.10;54.40;;;;;;4989632;28;20209;-37
2022/12/28 05:07:42;;;;;;;4.60;2.00;;;27.20;54.40;;;;;;4991119;28;20204;-37
2022/12/28 05:10:13;;;;;;;5.20;1.98;;;27.20;54.40;;;;;;4991454;28;20557;-37
2022/12/28 05:12:44;;;;;;;5.03;1.92;;;27.20;54.90;;;;;;4991038;28;20221;-39
2022/12/28 05:15:15;;;;;;;4.65;1.90;;;27.20;54.40;;;;;;4991373;28;20588;-39
2022/12/28 05:17:45;;;;;;;4.35;1.90;;;27.20;54.30;;;;;;4990065;28;20205;-40
2022/12/28 05:20:19;;;;;;;3.50;1.75;;;27.30;54.30;;;;;;4990794;28;20225;-45
2022/12/28 05:22:50;;;;;;;3.38;2.00;;;27.30;54.30;;;;;;4991197;28;20304;-39
2022/12/28 05:25:20;;;;;;;3.13;1.80;;;27.30;54.20;;;;;;4991376;28;20210;-37
2022/12/28 05:27:51;;;;;;;4.97;2.08;;;27.30;54.10;;;;;;4990945;28;20198;-39
2022/12/28 05:30:22;;;;;;;3.10;1.55;;;27.30;54.00;;;;;;4987775;28;20571;-40
2022/12/28 05:32:52;;;;;;;3.30;2.00;;;27.40;54.00;;;;;;4990960;28;20218;-37
2022/12/28 05:35:25;;;;;;;4.55;1.90;;;27.40;54.00;;;;;;4983929;28;20198;-43
2022/12/28 05:37:56;;;;;;;5.25;2.08;;;27.40;54.00;;;;;;4989625;28;20197;-39
2022/12/28 05:40:26;;;;;;;4.07;1.77;;;27.40;53.80;;;;;;4990347;28;20221;-36
2022/12/28 05:42:57;;;;;;;6.32;2.00;;;27.40;53.70;;;;;;4991514;28;20218;-50
2022/12/28 05:45:28;;;;;;;4.35;2.05;;;27.40;53.60;;;;;;4984349;28;20194;-37
2022/12/28 05:47:58;;;;;;;3.42;1.80;;;27.40;53.60;;;;;;4972061;28;20198;-44
2022/12/28 05:50:31;;;;;;;3.63;1.70;;;27.40;53.60;;;;;;4998285;28;20196;-42
2022/12/28 05:53:02;;;;;;;4.15;1.92;;;27.40;54.10;;;;;;5002186;28;20213;-39
2022/12/28 05:55:32;;;;;;;3.50;1.60;;;27.40;53.40;;;;;;4997544;28;20672;-38
2022/12/28 05:58:04;;;;;;;2.30;1.65;;;27.40;53.50;;;;;;4995117;28;20197;-38
2022/12/28 06:00:35;;;;;;;8.18;3.83;;;27.40;53.60;;;;;;4990842;28;20280;-38
2022/12/28 06:03:05;;;;;;;8.13;3.13;;;27.40;53.40;;;;;;4990710;28;20296;-40
2022/12/28 06:05:38;;;;;;;7.28;3.10;;;27.40;53.20;;;;;;4989602;28;20208;-39
2022/12/28 06:08:09;;;;;;;5.53;2.67;;;27.50;53.30;;;;;;4990483;28;20205;-38
2022/12/28 06:10:39;;;;;;;5.80;2.63;;;27.50;53.30;;;;;;4990027;28;20232;-38
2022/12/28 06:13:10;;;;;;;6.68;2.92;;;27.50;53.30;;;;;;4989808;28;20208;-38
2022/12/28 06:15:41;;;;;;;5.07;2.72;;;27.50;53.20;;;;;;4989480;28;20209;-37
2022/12/28 06:18:11;;;;;;;4.53;2.40;;;27.50;53.10;;;;;;4990112;28;20831;-40
2022/12/28 06:20:44;;;;;;;5.28;2.60;;;27.50;53.10;;;;;;4989773;28;20225;-39
2022/12/28 06:23:15;;;;;;;5.65;2.40;;;27.50;53.10;;;;;;4990482;28;20205;-40
2022/12/28 06:25:45;;;;;;;4.70;2.53;;;27.50;53.10;;;;;;4990634;28;20205;-39
2022/12/28 06:28:16;;;;;;;5.20;2.67;;;27.50;53.10;;;;;;4991316;28;20237;-38
2022/12/28 06:30:47;;;;;;;5.03;2.60;;;27.50;53.10;;;;;;4989598;28;20197;-40
2022/12/28 06:33:17;;;;;;;3.60;2.30;;;27.50;53.00;;;;;;4990190;28;20198;-38
2022/12/28 06:35:50;;;;;;;3.90;2.00;;;27.50;53.00;;;;;;4989937;28;20189;-38
2022/12/28 06:38:20;;;;;;;5.18;2.20;;;27.50;53.00;;;;;;4990562;28;20232;-38
2022/12/28 06:40:51;;;;;;;5.28;2.78;;;27.60;53.00;;;;;;4990212;28;20244;-37
2022/12/28 06:43:22;;;;;;;3.67;1.90;;;27.60;53.00;;;;;;4991214;28;20524;-37
2022/12/28 06:45:59;;;;;;;4.15;2.50;;;27.60;52.90;;;;;;4990937;28;20197;-38
2022/12/28 06:48:30;;;;;;;5.10;2.40;;;27.60;52.90;;;;;;4990740;28;20193;-42
2022/12/28 06:51:05;;;;;;;3.65;2.08;;;27.60;52.80;;;;;;4990709;28;20915;-37
2022/12/28 06:53:37;;;;;;;4.45;2.30;;;27.60;52.80;;;;;;4990831;28;20197;-41
2022/12/28 06:56:12;;;;;;;6.75;2.58;;;27.60;52.80;;;;;;4990825;28;20206;-41
2022/12/28 06:58:43;;;;;;;3.78;2.13;;;27.60;52.80;;;;;;4990991;28;20193;-39
2022/12/28 07:01:16;;;;;;;5.50;2.55;;;27.60;52.80;;;;;;4989521;28;20209;-38
2022/12/28 07:03:47;;;;;;;4.93;2.35;;;27.60;52.90;;;;;;4994501;28;20204;-38
2022/12/28 07:06:22;;;;;;;4.43;2.22;;;27.60;52.90;;;;;;4993911;28;20208;-37
2022/12/28 07:08:53;;;;;;;3.28;2.20;;;27.60;52.90;;;;;;4994447;28;20197;-38
2022/12/28 07:11:25;;;;;;;3.83;2.10;;;27.60;53.00;;;;;;4994219;28;20224;-38
2022/12/28 07:13:55;;;;;;;3.78;1.92;;;27.60;53.00;;;;;;4974752;28;20198;-37
2022/12/28 07:16:27;;;;;;;5.43;2.40;;;27.70;53.00;;;;;;4974303;28;20820;-37
2022/12/28 07:18:59;;;;;;;3.85;2.42;;;27.60;52.90;;;;;;4974609;28;20249;-38
2022/12/28 07:21:33;;;;;;;6.05;2.20;;;27.70;52.90;;;;;;4974532;28;20222;-37
2022/12/28 07:24:04;;;;;;;3.25;1.92;;;27.60;52.80;;;;;;4974505;28;20224;-37
2022/12/28 07:26:36;;;;;;;2.90;2.10;;;27.60;52.80;;;;;;4974589;28;20206;-38
2022/12/28 07:29:08;;;;;;;4.93;2.25;;;27.60;52.80;;;;;;4974214;28;20206;-37
2022/12/28 07:31:40;;;;;;;5.05;2.40;;;27.60;52.80;;;;;;4974231;28;20229;-37
2022/12/28 07:34:11;;;;;;;4.18;2.20;;;27.60;52.80;;;;;;4974463;28;20194;-37
2022/12/28 07:36:43;;;;;;;2.83;1.90;;;27.60;52.80;;;;;;4987742;28;20646;-37
2022/12/28 07:39:14;;;;;;;3.90;2.00;;;27.50;52.80;;;;;;4993454;28;20209;-37
2022/12/28 07:41:44;;;;;;;5.55;2.03;;;27.50;52.80;;;;;;4993597;28;20875;-37
2022/12/28 08:43:51;;;;;;;2.97;2.20;;;27.00;53.20;;;;;;5853733;22;20236;-48
2022/12/28 08:46:23;;;;;;;2.95;1.70;;;26.90;53.20;;;;;;5012105;28;20669;-51
2022/12/28 08:48:54;;;;;;;2.70;1.77;;;26.90;53.20;;;;;;5012204;28;20200;-46
2022/12/28 08:51:27;;;;;;;3.85;1.92;;;26.90;53.30;;;;;;5011922;28;20249;-42
2022/12/28 08:53:58;;;;;;;4.20;2.10;;;26.90;53.30;;;;;;5012202;28;20212;-48
2022/12/28 08:56:31;;;;;;;3.83;2.10;;;26.80;53.30;;;;;;5012000;28;20196;-45
2022/12/28 08:59:04;;;;;;;2.72;1.80;;;26.80;53.30;;;;;;5012156;28;20243;-45
2022/12/28 09:01:36;;;;;;;1.88;1.67;;;26.80;53.30;;;;;;5011699;28;20220;-51
2022/12/28 09:04:08;;;;;;;2.60;2.05;;;26.70;53.30;;;;;;5011864;28;20208;-49
2022/12/28 09:06:40;;;;;;;3.83;2.20;;;26.70;53.30;;;;;;4995767;28;20765;-41
2022/12/28 09:09:12;;;;;;;3.22;2.13;;;26.70;53.30;;;;;;4992627;28;20210;-55
2022/12/28 09:11:44;;;;;;;3.65;1.70;;;26.70;53.30;;;;;;4994462;28;20221;-48
2022/12/28 09:14:17;;;;;;;3.08;2.03;;;26.70;53.30;;;;;;5011716;28;20196;-45
2022/12/28 09:16:48;;;;;;;3.00;1.83;;;26.60;53.20;;;;;;5011738;28;20708;-51
2022/12/28 09:19:19;;;;;;;2.25;1.70;;;26.60;53.30;;;;;;5011746;28;20207;-45
2022/12/28 09:21:58;;;;;;;2.65;1.90;;;26.60;53.30;;;;;;5011502;28;20216;-50
2022/12/28 09:24:32;;;;;;;2.60;1.80;;;26.60;53.30;;;;;;4993253;28;20243;-41
2022/12/28 09:27:04;;;;;;;2.88;1.88;;;26.50;53.30;;;;;;4993891;28;20200;-49
2022/12/28 09:29:37;;;;;;;4.22;1.90;;;26.50;53.30;;;;;;5011226;28;20200;-50
2022/12/28 09:32:07;;;;;;;7.25;2.60;;;26.50;53.10;;;;;;5003678;28;20228;-42
2022/12/28 09:34:38;;;;;;;6.63;2.50;;;26.40;51.90;;;;;;5003759;28;20197;-41
2022/12/28 09:37:09;;;;;;;5.05;2.30;;;26.30;51.60;;;;;;5010366;28;20189;-43
2022/12/28 09:39:40;;;;;;;11.18;2.63;;;26.30;51.70;;;;;;5003941;28;20212;-51
2022/12/28 09:42:20;;;;;;;4.93;2.50;;;26.20;51.70;;;;;;5007908;28;20221;-41
2022/12/28 09:45:02;;;;;;;5.03;1.85;;;26.20;51.70;;;;;;5010667;28;20666;-43
2022/12/28 09:47:39;;;;;;;5.20;1.92;;;26.20;51.90;;;;;;5009951;28;20193;-44
2022/12/28 09:50:28;;;;;;;3.47;2.00;;;26.20;51.90;;;;;;5006219;28;20189;-46
2022/12/28 09:53:30;;;;;;;5.38;1.85;;;26.10;51.80;;;;;;4991723;28;20803;-41
2022/12/28 09:56:07;;;;;;;4.50;2.00;;;26.10;52.00;;;;;;4979898;28;20209;-41
2022/12/28 09:58:43;;;;;;;3.55;2.00;;;26.10;52.00;;;;;;4991082;28;20193;-41
2022/12/28 10:01:18;;;;;;;4.60;2.17;;;26.00;52.00;;;;;;4990203;28;20308;-42
2022/12/28 10:03:49;;;;;;;2.58;1.70;;;26.00;52.10;;;;;;4990778;28;20196;-43
2022/12/28 10:06:25;;;;;;;3.50;2.00;;;26.00;52.20;;;;;;4990274;28;20208;-47
2022/12/28 10:08:58;;;;;;;4.28;2.30;;;25.90;52.10;;;;;;5009560;28;20197;-42
2022/12/28 10:11:33;;;;;;;2.65;2.03;;;25.90;52.80;;;;;;5010188;28;20225;-44
2022/12/28 10:14:15;;;;;;;4.53;1.90;;;25.90;52.30;;;;;;4990491;28;20665;-42
2022/12/28 10:16:49;;;;;;;3.85;1.90;;;25.80;52.30;;;;;;4991182;28;20197;-48
2022/12/28 10:19:21;;;;;;;2.75;1.80;;;25.80;52.30;;;;;;4990367;28;20197;-41
2022/12/28 10:22:03;;;;;;;3.25;1.90;;;25.80;52.40;;;;;;4990587;28;20763;-41
2022/12/28 10:24:34;;;;;;;3.75;2.08;;;25.80;52.40;;;;;;4990101;28;20204;-48
2022/12/28 10:27:08;;;;;;;4.72;2.15;;;25.70;52.30;;;;;;4994997;28;20189;-41
2022/12/28 10:29:39;;;;;;;3.03;1.73;;;25.70;52.30;;;;;;4990256;28;20190;-42
2022/12/28 10:32:12;;;;;;;4.45;1.83;;;25.70;52.40;;;;;;4989758;28;20213;-42
2022/12/28 10:34:57;;;;;;;2.60;1.90;;;25.60;52.40;;;;;;4990054;28;20254;-48
2022/12/28 10:37:30;;;;;;;3.85;2.25;;;25.60;52.40;;;;;;4993996;28;20280;-42
2022/12/28 10:40:03;;;;;;;4.00;1.92;;;25.60;52.40;;;;;;5000110;28;20245;-42
2022/12/28 10:42:39;;;;;;;4.75;2.47;;;25.60;52.50;;;;;;5013769;28;20584;-41
2022/12/28 10:45:20;;;;;;;3.95;1.85;;;25.50;52.50;;;;;;5014801;28;20208;-46
2022/12/28 10:47:54;;;;;;;4.05;2.10;;;25.50;52.60;;;;;;5013367;28;20192;-42
2022/12/28 10:50:43;;;;;;;2.30;1.63;;;25.50;52.60;;;;;;5013872;28;20203;-41
2022/12/28 10:53:31;;;;;;;4.03;2.28;;;25.50;52.70;;;;;;5013465;28;20238;-42
2022/12/28 10:56:07;;;;;;;3.92;2.03;;;25.40;52.60;;;;;;5013799;28;20200;-42
2022/12/28 10:58:38;;;;;;;3.78;2.35;;;25.40;52.70;;;;;;5013645;28;20243;-44
2022/12/28 11:01:18;;;;;;;4.32;1.88;;;25.40;52.70;;;;;;5013818;28;20232;-41
2022/12/28 11:04:03;;;;;;;3.10;1.80;;;25.30;52.70;;;;;;5013005;28;20201;-41
2022/12/28 11:06:34;;;;;;;3.38;2.05;;;25.30;52.70;;;;;;5013198;28;20197;-41
2022/12/28 11:09:17;;;;;;;3.22;1.70;;;25.30;52.70;;;;;;5010872;28;20197;-45
2022/12/28 11:11:49;;;;;;;2.83;1.90;;;25.30;52.80;;;;;;5013268;28;20227;-42
2022/12/28 11:14:31;;;;;;;3.53;2.13;;;25.20;52.80;;;;;;5013386;28;20208;-48
2022/12/28 11:17:16;;;;;;;2.88;2.00;;;25.20;52.80;;;;;;5013550;28;20196;-54
2022/12/28 11:19:51;;;;;;;3.00;1.90;;;25.20;52.90;;;;;;5012819;28;20573;-45
2022/12/28 11:22:26;;;;;;;3.78;2.00;;;25.20;53.00;;;;;;5012768;28;20248;-50
2022/12/28 11:24:57;;;;;;;3.22;1.73;;;25.10;53.00;;;;;;5012803;28;20204;-41
2022/12/28 11:27:28;;;;;;;3.25;1.85;;;25.10;53.00;;;;;;5001610;28;20197;-41
2022/12/28 11:30:00;;;;;;;3.97;1.90;;;25.10;53.00;;;;;;4993094;28;20193;-42
2022/12/28 11:32:35;;;;;;;3.58;1.92;;;25.10;53.00;;;;;;4992778;28;20701;-41
2022/12/28 11:35:16;;;;;;;4.05;1.92;;;25.10;53.10;;;;;;4994335;28;20201;-41
2022/12/28 11:37:53;;;;;;;3.15;1.85;;;25.10;53.10;;;;;;5011736;28;20200;-41
2022/12/28 11:40:51;;;;;;;3.47;2.00;;;25.00;53.00;;;;;;5013210;28;20227;-41
2022/12/28 11:43:49;;;;;;;2.05;1.70;;;25.00;53.10;;;;;;5008357;28;20253;-42
2022/12/28 11:46:43;;;;;;;2.63;1.65;;;25.00;53.10;;;;;;5011845;28;20201;-43
2022/12/28 11:49:32;;;;;;;3.15;1.77;;;24.90;53.10;;;;;;4995357;28;20304;-45
2022/12/28 11:52:46;;;;;;;3.58;2.30;;;24.90;53.20;;;;;;4992873;28;20232;-41
2022/12/28 11:55:42;;;;;;;4.03;1.83;;;24.90;53.20;;;;;;4992895;28;20194;-44
2022/12/28 11:58:49;;;;;;;2.80;1.90;;;24.80;53.20;;;;;;4999692;28;20204;-41
2022/12/28 12:01:47;;;;;;;3.00;1.88;;;24.80;53.30;;;;;;4951689;29;20250;-47
2022/12/28 12:04:39;;;;;;;2.70;1.67;;;24.70;53.30;;;;;;5011743;28;20208;-42
2022/12/28 12:07:28;;;;;;;2.88;1.70;;;24.80;53.30;;;;;;5012595;28;20201;-42
2022/12/28 12:10:30;;;;;;;3.08;1.77;;;24.70;53.30;;;;;;5012813;28;20262;-41
2022/12/28 12:13:04;;;;;;;2.63;1.70;;;24.70;53.30;;;;;;5013031;28;20225;-41
2022/12/28 12:15:41;;;;;;;3.47;1.90;;;24.70;53.30;;;;;;5013133;28;20200;-41
2022/12/28 12:18:21;;;;;;;2.28;1.63;;;24.70;53.40;;;;;;5013259;28;20201;-41
2022/12/28 12:21:03;;;;;;;2.15;1.65;;;24.70;53.40;;;;;;5011359;28;21067;-42
2022/12/28 12:23:49;;;;;;;2.58;1.40;;;24.60;53.40;;;;;;5012757;28;20204;-42
2022/12/28 12:26:26;;;;;;;3.75;2.00;;;24.60;53.40;;;;;;5012497;28;20208;-43
2022/12/28 12:29:04;;;;;;;3.03;1.80;;;24.50;53.40;;;;;;5012516;28;20197;-44
2022/12/28 12:31:41;;;;;;;1.80;1.40;;;24.50;53.40;;;;;;5011848;28;20212;-41
2022/12/28 12:34:17;;;;;;;2.03;1.55;;;24.50;53.50;;;;;;5011343;28;20196;-43
2022/12/28 12:37:46;;;;;;;2.22;1.60;;;24.50;53.50;;;;;;5012239;28;20200;-44
2022/12/28 12:40:44;;;;;;;2.58;1.50;;;24.40;53.50;;;;;;4931546;29;20684;-41
2022/12/28 12:43:29;;;;;;;2.88;1.85;;;24.50;53.60;;;;;;5002317;28;20204;-41
2022/12/28 12:46:15;;;;;;;2.58;1.52;;;24.40;53.60;;;;;;5001386;28;20246;-43
2022/12/28 12:49:06;;;;;;;3.17;1.85;;;24.40;53.60;;;;;;5002176;28;20196;-45
2022/12/28 12:51:43;;;;;;;1.85;1.30;;;24.40;53.60;;;;;;5012127;28;20220;-41
2022/12/28 12:54:27;;;;;;;2.10;1.42;;;24.30;53.60;;;;;;5012484;28;20657;-42
2022/12/28 12:57:03;;;;;;;1.70;1.50;;;24.40;53.70;;;;;;5011634;28;20200;-40
2022/12/28 12:59:44;;;;;;;2.15;1.35;;;24.30;54.30;;;;;;5009152;28;20188;-41
2022/12/28 13:02:41;;;;;;;2.75;1.90;;;24.30;53.70;;;;;;5011665;28;20582;-41
2022/12/28 13:05:19;;;;;;;1.77;1.40;;;24.30;53.80;;;;;;4979731;28;20200;-42
2022/12/28 13:07:51;;;;;;;1.67;1.55;;;24.20;53.70;;;;;;5011866;28;20660;-41
2022/12/28 13:10:27;;;;;;;2.47;1.60;;;24.20;53.80;;;;;;5011992;28;20223;-44
2022/12/28 13:13:00;;;;;;;3.03;1.40;;;24.20;53.80;;;;;;5011901;28;20220;-41
2022/12/28 13:15:31;;;;;;;1.95;1.50;;;24.20;53.80;;;;;;5011766;28;20278;-43
2022/12/28 13:18:05;;;;;;;2.78;1.58;;;24.20;53.80;;;;;;5011910;28;20193;-43
2022/12/28 13:20:36;;;;;;;3.10;1.95;;;24.20;53.80;;;;;;5011823;28;20199;-41
2022/12/28 13:23:07;;;;;;;2.33;1.50;;;24.20;54.50;;;;;;5011621;28;20224;-41
2022/12/28 13:25:37;;;;;;;2.08;1.48;;;24.10;53.80;;;;;;5011417;28;20208;-43
2022/12/28 13:28:19;;;;;;;2.60;1.50;;;24.10;53.80;;;;;;5011305;28;20578;-43
2022/12/28 13:31:06;;;;;;;2.13;1.38;;;24.10;53.80;;;;;;5011428;28;20209;-43
2022/12/28 13:33:42;;;;;;;1.70;1.25;;;24.00;53.80;;;;;;5011763;28;20205;-42
2022/12/28 13:36:20;;;;;;;1.50;1.30;;;24.00;53.80;;;;;;5008465;28;20189;-45
2022/12/28 13:39:04;;;;;;;2.00;1.58;;;24.00;53.80;;;;;;5011844;28;20197;-45
2022/12/28 13:41:37;;;;;;;1.50;1.30;;;24.00;53.90;;;;;;5011028;28;20308;-41
2022/12/28 13:44:39;;;;;;;1.58;1.30;;;24.00;53.90;;;;;;5011663;28;20208;-41
2022/12/28 13:47:15;;;;;;;2.17;1.33;;;24.00;54.00;;;;;;5011229;28;20203;-40
2022/12/28 13:49:55;;;;;;;1.83;1.33;;;23.90;53.90;;;;;;5011049;28;20207;-53
2022/12/28 13:52:29;;;;;;;1.80;1.20;;;23.90;53.90;;;;;;5010852;28;20595;-43
2022/12/28 13:55:04;;;;;;;1.98;1.27;;;23.90;54.00;;;;;;5011119;28;20203;-42
2022/12/28 13:57:37;;;;;;;1.85;1.30;;;23.90;53.90;;;;;;5010603;28;20197;-41
2022/12/28 14:00:09;;;;;;;3.13;1.58;;;23.90;54.00;;;;;;5011145;28;20204;-41
2022/12/28 14:02:43;;;;;;;1.65;1.55;;;23.80;53.90;;;;;;5010528;28;20603;-42
2022/12/28 14:05:22;;;;;;;2.08;1.30;;;23.80;54.00;;;;;;5010863;28;20201;-44
2022/12/28 14:07:54;;;;;;;1.90;1.13;;;23.80;54.00;;;;;;5010923;28;20204;-41
2022/12/28 14:10:25;;;;;;;3.20;1.48;;;23.80;54.00;;;;;;5010342;28;20203;-41
2022/12/28 14:12:57;;;;;;;1.42;1.10;;;23.80;54.00;;;;;;5010727;28;20220;-47
2022/12/28 14:15:28;;;;;;;1.40;1.30;;;23.80;54.00;;;;;;5010938;28;20200;-42
2022/12/28 14:17:59;;;;;;;1.85;1.45;;;23.70;54.00;;;;;;5010874;28;20197;-41
2022/12/28 14:20:31;;;;;;;1.50;1.40;;;23.70;54.00;;;;;;5010892;28;20690;-41
2022/12/28 14:23:23;;;;;;;2.15;1.42;;;23.70;54.00;;;;;;5010553;28;20241;-49
2022/12/28 14:25:55;;;;;;;1.77;1.27;;;23.70;54.10;;;;;;5010708;28;20199;-41
2022/12/28 14:28:32;;;;;;;1.90;1.20;;;23.70;54.10;;;;;;5010730;28;20204;-42
2022/12/28 14:31:04;;;;;;;1.50;1.10;;;23.70;54.10;;;;;;5010780;28;20549;-44
2022/12/28 14:33:38;;;;;;;3.60;1.40;;;23.70;54.10;;;;;;5010755;28;20193;-41
2022/12/28 14:36:20;;;;;;;1.25;1.15;;;23.60;54.00;;;;;;5010295;28;20203;-41
2022/12/28 14:38:54;;;;;;;1.58;1.05;;;23.60;54.00;;;;;;5009425;28;20649;-42
2022/12/28 14:41:29;;;;;;;1.80;1.20;;;23.60;54.10;;;;;;5010431;28;20680;-42
2022/12/28 14:44:02;;;;;;;1.67;1.20;;;23.60;54.10;;;;;;5010912;28;20196;-44
2022/12/28 14:46:35;;;;;;;1.40;1.10;;;23.50;54.10;;;;;;5010057;28;20665;-41
2022/12/28 14:49:31;;;;;;;1.27;1.17;;;23.50;54.10;;;;;;5010093;28;20551;-42
2022/12/28 14:52:35;;;;;;;1.73;1.20;;;23.50;54.10;;;;;;5010614;28;20217;-43
2022/12/28 14:55:23;;;;;;;1.42;1.30;;;23.50;54.10;;;;;;5010483;28;20204;-41